createdAt,value
2022-10-17T00:00:43.386Z,93.41
2022-10-17T00:01:43.400Z,93.10
2022-10-17T00:02:43.370Z,92.80
2022-10-17T00:03:43.345Z,92.70
2022-10-17T00:04:43.341Z,93.66
2022-10-17T00:05:43.346Z,93.25
2022-10-17T00:06:43.354Z,92.74
2022-10-17T00:07:43.359Z,93.25
2022-10-17T00:08:43.311Z,92.74
2022-10-17T00:09:43.309Z,93.45
2022-10-17T00:10:43.290Z,93.15
2022-10-17T00:11:43.288Z,94.21
2022-10-17T00:12:43.378Z,94.42
2022-10-17T00:13:43.294Z,94.31
2022-10-17T00:14:43.259Z,94.21
2022-10-17T00:15:43.258Z,95.08
2022-10-17T00:16:43.258Z,95.74
2022-10-17T00:17:43.238Z,96.20
2022-10-17T00:18:43.249Z,96.92
2022-10-17T00:19:43.234Z,96.20
2022-10-17T00:20:43.217Z,96.10
2022-10-17T00:21:43.221Z,95.69
2022-10-17T00:22:43.218Z,95.59
2022-10-17T00:23:43.222Z,96.10
2022-10-17T00:24:43.219Z,97.12
2022-10-17T00:25:43.229Z,96.67
2022-10-17T00:26:43.187Z,97.17
2022-10-17T00:27:43.186Z,98.60
2022-10-17T00:28:43.237Z,98.09
2022-10-17T00:29:43.194Z,97.78
2022-10-17T00:30:43.206Z,98.39
2022-10-17T00:31:43.238Z,97.58
2022-10-17T00:32:43.192Z,97.07
2022-10-17T00:33:43.185Z,97.48
2022-10-17T00:34:43.158Z,97.38
2022-10-17T00:35:43.131Z,96.97
2022-10-17T00:36:43.122Z,96.92
2022-10-17T00:37:43.129Z,97.07
2022-10-17T00:38:43.117Z,96.77
2022-10-17T00:39:44.117Z,96.97
2022-10-17T00:40:43.135Z,97.58
2022-10-17T00:41:43.103Z,97.69
2022-10-17T00:42:43.111Z,98.80
2022-10-17T00:43:43.107Z,98.91
2022-10-17T00:44:43.089Z,98.80
2022-10-17T00:45:43.085Z,99.06
2022-10-17T00:46:43.066Z,99.27
2022-10-17T00:47:44.062Z,98.75
2022-10-17T00:48:43.057Z,99.06
2022-10-17T00:49:43.062Z,99.27
2022-10-17T00:50:43.042Z,99.47
2022-10-17T00:51:43.048Z,98.96
2022-10-17T00:52:43.039Z,99.11
2022-10-17T00:53:43.030Z,98.86
2022-10-17T00:54:43.024Z,98.45
2022-10-17T00:55:43.009Z,97.69
2022-10-17T00:56:43.019Z,97.44
2022-10-17T00:57:43.003Z,97.23
2022-10-17T00:58:42.996Z,96.83
2022-10-17T00:59:42.986Z,97.03
2022-10-17T01:00:42.983Z,96.62
2022-10-17T01:01:43.104Z,96.11
2022-10-17T01:02:42.982Z,97.03
2022-10-17T01:03:42.958Z,97.03
2022-10-17T01:04:42.949Z,97.53
2022-10-17T01:05:42.961Z,96.83
2022-10-17T01:06:42.951Z,96.62
2022-10-17T01:07:42.938Z,97.03
2022-10-17T01:08:42.939Z,96.62
2022-10-17T01:09:42.947Z,96.52
2022-10-17T01:10:42.923Z,96.52
2022-10-17T01:11:42.934Z,95.61
2022-10-17T01:12:43.002Z,94.32
2022-10-17T01:13:42.907Z,94.12
2022-10-17T01:14:42.921Z,94.63
2022-10-17T01:15:42.885Z,95.54
2022-10-17T01:16:42.898Z,94.73
2022-10-17T01:17:42.879Z,94.07
2022-10-17T01:18:42.862Z,94.27
2022-10-17T01:19:42.865Z,94.07
2022-10-17T01:20:42.862Z,94.17
2022-10-17T01:21:42.850Z,94.47
2022-10-17T01:22:42.845Z,93.86
2022-10-17T01:23:42.833Z,94.07
2022-10-17T01:24:42.837Z,93.90
2022-10-17T01:25:42.825Z,94.11
2022-10-17T01:26:42.817Z,94.62
2022-10-17T01:27:42.818Z,96.15
2022-10-17T01:29:42.794Z,96.76
2022-10-17T01:30:42.790Z,96.86
2022-10-17T01:31:42.788Z,97.41
2022-10-17T01:32:42.797Z,99.96
2022-10-17T01:33:42.774Z,99.51
2022-10-17T01:34:42.770Z,99.91
2022-10-17T01:35:42.763Z,99.76
2022-10-17T01:36:42.753Z,99.71
2022-10-17T01:37:42.807Z,99.66
2022-10-17T01:38:42.734Z,99.41
2022-10-17T01:39:45.363Z,99.30
2022-10-17T01:40:43.740Z,99.00
2022-10-17T01:41:42.725Z,98.79
2022-10-17T01:42:42.718Z,99.10
2022-10-17T01:43:42.717Z,97.27
2022-10-17T01:44:42.716Z,97.98
2022-10-17T01:45:42.713Z,98.79
2022-10-17T01:46:42.693Z,97.78
2022-10-17T01:47:42.679Z,97.37
2022-10-17T01:48:43.682Z,97.78
2022-10-17T01:49:42.715Z,97.78
2022-10-17T01:50:42.704Z,96.86
2022-10-17T01:51:42.696Z,97.27
2022-10-17T01:52:42.653Z,96.25
2022-10-17T01:53:42.657Z,95.74
2022-10-17T01:54:42.640Z,95.23
2022-10-17T01:55:42.657Z,95.23
2022-10-17T01:56:42.625Z,95.74
2022-10-17T01:57:42.624Z,95.74
2022-10-17T01:58:42.616Z,95.74
2022-10-17T01:59:42.611Z,95.03
2022-10-17T02:00:42.605Z,95.28
2022-10-17T02:01:42.645Z,94.72
2022-10-17T02:02:42.575Z,94.46
2022-10-17T02:03:42.585Z,95.94
2022-10-17T02:04:42.599Z,95.58
2022-10-17T02:05:42.682Z,96.15
2022-10-17T02:06:42.565Z,97.37
2022-10-17T02:07:42.572Z,97.82
2022-10-17T02:08:42.543Z,98.39
2022-10-17T02:09:42.540Z,97.67
2022-10-17T02:10:42.558Z,97.72
2022-10-17T02:11:42.521Z,97.82
2022-10-17T02:12:42.516Z,97.62
2022-10-17T02:13:42.517Z,97.16
2022-10-17T02:14:42.498Z,96.86
2022-10-17T02:15:42.516Z,97.27
2022-10-17T02:16:42.494Z,96.70
2022-10-17T02:17:42.490Z,96.86
2022-10-17T02:18:42.477Z,97.21
2022-10-17T02:19:42.473Z,96.91
2022-10-17T02:20:42.465Z,97.62
2022-10-17T02:21:42.481Z,97.11
2022-10-17T02:22:42.464Z,95.98
2022-10-17T02:23:42.449Z,94.26
2022-10-17T02:24:42.445Z,94.40
2022-10-17T02:25:42.442Z,94.20
2022-10-17T02:26:42.441Z,93.89
2022-10-17T02:27:42.440Z,93.89
2022-10-17T02:28:42.452Z,94.09
2022-10-17T02:29:42.417Z,94.20
2022-10-17T02:30:42.411Z,93.79
2022-10-17T02:31:42.421Z,93.89
2022-10-17T02:32:45.417Z,94.04
2022-10-17T02:33:43.384Z,93.93
2022-10-17T02:34:42.381Z,93.73
2022-10-17T02:35:42.375Z,94.14
2022-10-17T02:36:42.377Z,94.65
2022-10-17T02:37:42.365Z,94.55
2022-10-17T02:38:42.349Z,97.30
2022-10-17T02:39:42.349Z,97.30
2022-10-17T02:40:42.349Z,97.81
2022-10-17T02:41:42.358Z,97.40
2022-10-17T02:42:42.340Z,96.79
2022-10-17T02:43:42.329Z,95.67
2022-10-17T02:44:42.334Z,95.47
2022-10-17T02:45:42.325Z,94.95
2022-10-17T02:46:42.328Z,94.90
2022-10-17T02:47:42.289Z,95.06
2022-10-17T02:48:42.291Z,95.57
2022-10-17T02:49:42.301Z,95.57
2022-10-17T02:50:42.277Z,96.02
2022-10-17T02:51:42.304Z,96.43
2022-10-17T02:52:42.279Z,96.79
2022-10-17T02:53:42.264Z,97.50
2022-10-17T02:54:42.265Z,97.14
2022-10-17T02:55:42.260Z,97.40
2022-10-17T02:56:42.264Z,97.30
2022-10-17T02:57:42.266Z,98.02
2022-10-17T02:58:42.244Z,98.63
2022-10-17T02:59:42.221Z,98.83
2022-10-17T03:00:42.224Z,99.14
2022-10-17T03:01:42.345Z,98.43
2022-10-17T03:02:42.237Z,98.73
2022-10-17T03:03:42.210Z,98.93
2022-10-17T03:04:42.205Z,97.81
2022-10-17T03:05:42.204Z,97.09
2022-10-17T03:06:42.193Z,96.79
2022-10-17T03:07:42.188Z,97.71
2022-10-17T03:08:42.198Z,97.40
2022-10-17T03:09:42.180Z,97.61
2022-10-17T03:10:42.180Z,97.20
2022-10-17T03:11:42.155Z,97.00
2022-10-17T03:12:42.177Z,96.89
2022-10-17T03:13:42.148Z,96.79
2022-10-17T03:14:42.176Z,96.94
2022-10-17T03:15:42.133Z,97.24
2022-10-17T03:16:42.124Z,97.00
2022-10-17T03:17:42.167Z,97.50
2022-10-17T03:18:44.377Z,97.34
2022-10-17T03:19:42.113Z,96.84
2022-10-17T03:20:42.104Z,97.14
2022-10-17T03:21:42.096Z,96.22
2022-10-17T03:22:42.092Z,95.92
2022-10-17T03:23:42.080Z,95.81
2022-10-17T03:24:42.108Z,95.10
2022-10-17T03:25:42.065Z,95.31
2022-10-17T03:26:42.160Z,95.86
2022-10-17T03:27:42.063Z,95.76
2022-10-17T03:28:42.101Z,96.94
2022-10-17T03:29:42.054Z,97.49
2022-10-17T03:30:42.036Z,96.63
2022-10-17T03:31:42.028Z,96.53
2022-10-17T03:32:42.029Z,96.58
2022-10-17T03:33:42.022Z,97.29
2022-10-17T03:34:42.008Z,96.53
2022-10-17T03:35:42.039Z,96.12
2022-10-17T03:36:42.016Z,95.81
2022-10-17T03:37:41.995Z,97.96
2022-10-17T03:38:41.976Z,97.55
2022-10-17T03:39:41.984Z,99.08
2022-10-17T03:40:41.976Z,98.98
2022-10-17T03:41:41.982Z,98.57
2022-10-17T03:42:41.960Z,98.16
2022-10-17T03:43:41.952Z,97.14
2022-10-17T03:44:41.945Z,97.86
2022-10-17T03:45:41.947Z,97.04
2022-10-17T03:46:41.972Z,96.63
2022-10-17T03:47:41.932Z,96.98
2022-10-17T03:48:41.928Z,95.86
2022-10-17T03:49:41.932Z,96.73
2022-10-17T03:50:41.922Z,96.47
2022-10-17T03:51:41.925Z,96.27
2022-10-17T03:52:41.907Z,95.96
2022-10-17T03:53:41.892Z,95.76
2022-10-17T03:54:41.904Z,95.86
2022-10-17T03:55:41.876Z,95.76
2022-10-17T03:56:41.879Z,95.56
2022-10-17T03:57:43.455Z,95.96
2022-10-17T03:58:41.873Z,95.15
2022-10-17T03:59:41.869Z,95.76
2022-10-17T04:00:41.856Z,95.65
2022-10-17T04:01:41.942Z,95.35
2022-10-17T04:02:41.840Z,95.25
2022-10-17T04:03:41.823Z,95.86
2022-10-17T04:04:41.836Z,96.37
2022-10-17T04:05:41.812Z,96.37
2022-10-17T04:06:41.816Z,96.68
2022-10-17T04:07:41.806Z,96.88
2022-10-17T04:08:41.800Z,96.47
2022-10-17T04:09:41.805Z,96.17
2022-10-17T04:10:41.786Z,95.39
2022-10-17T04:11:41.783Z,95.45
2022-10-17T04:12:41.774Z,95.70
2022-10-17T04:13:41.768Z,95.90
2022-10-17T04:14:41.778Z,95.39
2022-10-17T04:15:41.756Z,95.70
2022-10-17T04:16:41.756Z,95.60
2022-10-17T04:17:41.735Z,95.39
2022-10-17T04:18:41.739Z,95.50
2022-10-17T04:19:41.733Z,95.35
2022-10-17T04:20:41.729Z,95.29
2022-10-17T04:21:41.743Z,95.80
2022-10-17T04:22:41.712Z,96.01
2022-10-17T04:23:41.701Z,95.90
2022-10-17T04:24:41.696Z,96.37
2022-10-17T04:25:41.684Z,96.83
2022-10-17T04:26:41.772Z,96.72
2022-10-17T04:27:41.675Z,97.33
2022-10-17T04:28:41.678Z,97.13
2022-10-17T04:29:41.666Z,97.19
2022-10-17T04:30:45.076Z,97.70
2022-10-17T04:31:41.651Z,97.74
2022-10-17T04:32:41.648Z,96.78
2022-10-17T04:33:41.637Z,96.98
2022-10-17T04:34:41.631Z,97.29
2022-10-17T04:35:41.620Z,97.64
2022-10-17T04:36:41.615Z,97.19
2022-10-17T04:37:41.616Z,97.39
2022-10-17T04:38:42.603Z,97.29
2022-10-17T04:39:41.600Z,97.19
2022-10-17T04:40:41.608Z,97.19
2022-10-17T04:41:41.611Z,97.60
2022-10-17T04:42:41.575Z,98.00
2022-10-17T04:43:43.432Z,98.11
2022-10-17T04:44:41.564Z,97.80
2022-10-17T04:45:41.565Z,97.80
2022-10-17T04:46:41.559Z,97.60
2022-10-17T04:47:41.547Z,97.80
2022-10-17T04:48:41.539Z,97.80
2022-10-17T04:50:42.519Z,97.60
2022-10-17T04:51:41.519Z,97.49
2022-10-17T04:52:41.532Z,97.39
2022-10-17T04:53:41.507Z,96.98
2022-10-17T04:54:41.500Z,97.70
2022-10-17T04:55:41.500Z,96.92
2022-10-17T04:56:41.492Z,96.78
2022-10-17T04:57:41.497Z,97.44
2022-10-17T04:58:41.479Z,97.33
2022-10-17T04:59:41.480Z,97.33
2022-10-17T05:00:41.495Z,96.83
2022-10-17T05:01:41.470Z,97.24
2022-10-17T05:02:41.468Z,97.44
2022-10-17T05:03:41.466Z,97.44
2022-10-17T05:04:41.439Z,97.44
2022-10-17T05:05:41.451Z,97.13
2022-10-17T05:06:41.431Z,96.88
2022-10-17T05:07:41.428Z,97.24
2022-10-17T05:08:41.424Z,97.54
2022-10-17T05:09:41.416Z,96.51
2022-10-17T05:10:41.407Z,96.31
2022-10-17T05:11:41.397Z,96.92
2022-10-17T05:12:41.397Z,97.64
2022-10-17T05:13:41.404Z,97.24
2022-10-17T05:14:41.375Z,97.44
2022-10-17T05:15:41.371Z,97.33
2022-10-17T05:16:41.368Z,96.92
2022-10-17T05:17:41.367Z,97.54
2022-10-17T05:18:41.355Z,96.98
2022-10-17T05:19:41.355Z,97.13
2022-10-17T05:20:41.339Z,96.92
2022-10-17T05:21:41.331Z,96.68
2022-10-17T05:22:42.203Z,96.68
2022-10-17T05:23:41.327Z,95.96
2022-10-17T05:24:41.364Z,95.76
2022-10-17T05:25:41.304Z,95.80
2022-10-17T05:26:41.298Z,96.06
2022-10-17T05:27:41.302Z,96.21
2022-10-17T05:28:41.334Z,95.35
2022-10-17T05:29:41.305Z,95.60
2022-10-17T05:30:41.264Z,95.70
2022-10-17T05:31:41.272Z,96.01
2022-10-17T05:32:41.268Z,94.89
2022-10-17T05:33:41.253Z,94.82
2022-10-17T05:34:41.271Z,94.48
2022-10-17T05:35:41.260Z,94.58
2022-10-17T05:36:41.234Z,94.89
2022-10-17T05:37:41.240Z,94.89
2022-10-17T05:38:41.224Z,94.82
2022-10-17T05:39:41.218Z,94.82
2022-10-17T05:40:41.217Z,94.62
2022-10-17T05:41:41.202Z,95.03
2022-10-17T05:42:41.203Z,95.09
2022-10-17T05:43:41.202Z,95.29
2022-10-17T05:44:41.180Z,95.54
2022-10-17T05:45:41.190Z,94.89
2022-10-17T05:46:41.169Z,96.11
2022-10-17T05:47:41.163Z,95.90
2022-10-17T05:48:41.176Z,95.90
2022-10-17T05:49:47.343Z,95.64
2022-10-17T05:50:42.144Z,95.70
2022-10-17T05:51:41.140Z,95.39
2022-10-17T05:52:42.913Z,95.03
2022-10-17T05:53:41.131Z,94.37
2022-10-17T05:54:41.126Z,94.48
2022-10-17T05:55:41.122Z,94.68
2022-10-17T05:56:41.103Z,94.58
2022-10-17T05:57:41.099Z,94.68
2022-10-17T05:59:00.789Z,94.48
2022-10-17T05:59:43.103Z,94.48
2022-10-17T06:00:41.159Z,94.78
2022-10-17T06:01:41.093Z,94.78
2022-10-17T06:02:41.067Z,94.78
2022-10-17T06:03:41.060Z,95.09
2022-10-17T06:04:41.063Z,95.19
2022-10-17T06:05:41.072Z,95.09
2022-10-17T06:06:41.044Z,95.96
2022-10-17T06:07:41.104Z,96.06
2022-10-17T06:08:41.033Z,95.70
2022-10-17T06:09:41.053Z,95.25
2022-10-17T06:10:41.033Z,95.56
2022-10-17T06:11:41.014Z,96.58
2022-10-17T06:12:41.000Z,97.39
2022-10-17T06:13:40.995Z,96.78
2022-10-17T06:14:40.987Z,96.63
2022-10-17T06:15:41.004Z,96.73
2022-10-17T06:16:40.976Z,96.33
2022-10-17T06:17:40.983Z,96.12
2022-10-17T06:18:41.030Z,95.81
2022-10-17T06:19:41.007Z,95.61
2022-10-17T06:20:45.255Z,95.31
2022-10-17T06:21:42.942Z,95.77
2022-10-17T06:22:40.935Z,95.06
2022-10-17T06:23:40.932Z,95.87
2022-10-17T06:24:40.927Z,95.36
2022-10-17T06:25:40.956Z,95.16
2022-10-17T06:26:40.915Z,94.91
2022-10-17T06:27:40.946Z,95.21
2022-10-17T06:28:40.935Z,95.12
2022-10-17T06:29:40.901Z,95.12
2022-10-17T06:30:40.907Z,95.32
2022-10-17T06:31:40.883Z,95.32
2022-10-17T06:32:40.874Z,95.12
2022-10-17T06:33:40.866Z,94.91
2022-10-17T06:34:40.871Z,95.58
2022-10-17T06:35:40.853Z,95.68
2022-10-17T06:36:40.877Z,96.19
2022-10-17T06:37:41.039Z,96.25
2022-10-17T06:38:40.834Z,95.94
2022-10-17T06:39:40.828Z,95.84
2022-10-17T06:40:40.829Z,95.69
2022-10-17T06:41:40.843Z,95.39
2022-10-17T06:42:40.819Z,95.29
2022-10-17T06:43:40.803Z,95.34
2022-10-17T06:44:40.826Z,95.49
2022-10-17T06:45:40.795Z,95.65
2022-10-17T06:46:40.791Z,95.61
2022-10-17T06:47:40.803Z,95.70
2022-10-17T06:48:40.768Z,95.81
2022-10-17T06:49:40.762Z,95.05
2022-10-17T06:50:40.760Z,94.08
2022-10-17T06:51:40.749Z,94.04
2022-10-17T06:52:40.765Z,93.43
2022-10-17T06:53:40.754Z,93.33
2022-10-17T06:54:40.736Z,92.28
2022-10-17T06:55:40.729Z,91.17
2022-10-17T06:56:40.718Z,90.18
2022-10-17T06:57:40.717Z,88.96
2022-10-17T06:58:40.728Z,86.08
2022-10-17T06:59:40.715Z,83.82
2022-10-17T07:00:40.783Z,84.33
2022-10-17T07:01:43.216Z,84.73
2022-10-17T07:02:41.689Z,84.22
2022-10-17T07:03:40.693Z,85.13
2022-10-17T07:04:40.691Z,84.79
2022-10-17T07:05:40.661Z,84.65
2022-10-17T07:06:40.669Z,83.64
2022-10-17T07:07:43.146Z,85.14
2022-10-17T07:08:40.649Z,85.11
2022-10-17T07:09:40.654Z,83.79
2022-10-17T07:10:40.632Z,83.06
2022-10-17T07:11:40.637Z,81.07
2022-10-17T07:12:40.620Z,77.45
2022-10-17T07:13:40.625Z,78.98
2022-10-17T07:14:40.626Z,77.50
2022-10-17T07:15:40.605Z,70.56
2022-10-17T07:16:40.582Z,72.69
2022-10-17T07:17:40.597Z,73.52
2022-10-17T07:18:40.582Z,68.99
2022-10-17T07:19:40.642Z,70.76
2022-10-17T07:20:40.561Z,68.93
2022-10-17T07:21:40.556Z,67.83
2022-10-17T07:22:40.545Z,68.00
2022-10-17T07:23:40.534Z,66.94
2022-10-17T07:24:40.580Z,65.98
2022-10-17T07:25:40.540Z,58.83
2022-10-17T07:26:40.554Z,58.90
2022-10-17T07:27:40.513Z,62.41
2022-10-17T07:28:40.519Z,56.43
2022-10-17T07:29:40.513Z,55.91
2022-10-17T07:30:40.516Z,54.79
2022-10-17T07:31:40.484Z,52.41
2022-10-17T07:32:40.481Z,53.26
2022-10-17T07:33:40.529Z,54.87
2022-10-17T07:34:40.461Z,56.74
2022-10-17T07:35:40.463Z,58.48
2022-10-17T07:36:40.476Z,59.66
2022-10-17T07:37:40.475Z,62.77
2022-10-17T07:38:40.445Z,64.76
2022-10-17T07:39:40.445Z,68.96
2022-10-17T07:40:40.428Z,69.53
2022-10-17T07:41:40.461Z,71.56
2022-10-17T07:43:40.396Z,73.07
2022-10-17T07:44:40.393Z,72.83
2022-10-17T07:45:40.417Z,70.89
2022-10-17T07:46:40.385Z,70.56
2022-10-17T07:47:40.400Z,69.96
2022-10-17T07:48:40.376Z,70.36
2022-10-17T07:49:40.364Z,71.03
2022-10-17T07:50:40.353Z,68.76
2022-10-17T07:51:40.403Z,68.10
2022-10-17T07:52:40.369Z,67.10
2022-10-17T07:53:42.690Z,67.83
2022-10-17T07:54:40.334Z,68.66
2022-10-17T07:55:40.337Z,68.93
2022-10-17T07:56:40.328Z,68.16
2022-10-17T07:57:40.316Z,68.76
2022-10-17T07:58:40.329Z,67.76
2022-10-17T07:59:40.316Z,68.96
2022-10-17T08:00:40.422Z,68.86
2022-10-17T08:01:40.284Z,67.96
2022-10-17T08:02:41.283Z,69.06
2022-10-17T08:03:40.280Z,69.36
2022-10-17T08:04:40.299Z,69.02
2022-10-17T08:05:40.269Z,69.26
2022-10-17T08:06:40.260Z,68.63
2022-10-17T08:07:40.290Z,69.29
2022-10-17T08:08:40.239Z,69.79
2022-10-17T08:09:40.232Z,70.49
2022-10-17T08:10:40.281Z,70.59
2022-10-17T08:11:40.220Z,70.46
2022-10-17T08:12:40.225Z,69.13
2022-10-17T08:13:40.221Z,68.19
2022-10-17T08:14:40.219Z,69.26
2022-10-17T08:15:40.217Z,68.56
2022-10-17T08:16:40.191Z,68.46
2022-10-17T08:17:40.184Z,67.73
2022-10-17T08:18:40.196Z,67.27
2022-10-17T08:19:40.184Z,66.44
2022-10-17T08:20:40.172Z,64.51
2022-10-17T08:21:40.172Z,65.48
2022-10-17T08:22:40.161Z,66.27
2022-10-17T08:23:40.139Z,65.81
2022-10-17T08:24:40.145Z,65.88
2022-10-17T08:25:40.140Z,63.37
2022-10-17T08:26:43.385Z,63.73
2022-10-17T08:27:40.124Z,62.31
2022-10-17T08:28:40.235Z,62.88
2022-10-17T08:29:40.191Z,62.45
2022-10-17T08:30:40.117Z,60.74
2022-10-17T08:31:40.118Z,59.52
2022-10-17T08:32:40.091Z,60.21
2022-10-17T08:33:40.092Z,60.38
2022-10-17T08:34:40.083Z,57.68
2022-10-17T08:35:40.066Z,58.64
2022-10-17T08:36:40.087Z,58.25
2022-10-17T08:37:40.063Z,56.02
2022-10-17T08:38:43.150Z,56.91
2022-10-17T08:39:41.064Z,56.38
2022-10-17T08:40:40.104Z,55.87
2022-10-17T08:41:40.044Z,55.64
2022-10-17T08:42:40.027Z,54.85
2022-10-17T08:43:40.019Z,52.66
2022-10-17T08:44:40.036Z,52.73
2022-10-17T08:45:40.019Z,54.70
2022-10-17T08:46:40.008Z,52.33
2022-10-17T08:47:39.992Z,52.31
2022-10-17T08:48:44.089Z,52.19
2022-10-17T08:49:42.003Z,51.89
2022-10-17T08:50:39.987Z,49.82
2022-10-17T08:51:39.972Z,50.59
2022-10-17T08:52:39.977Z,50.98
2022-10-17T08:53:39.963Z,50.39
2022-10-17T08:54:39.975Z,49.30
2022-10-17T08:55:42.859Z,50.16
2022-10-17T08:56:48.535Z,50.49
2022-10-17T08:57:41.946Z,49.65
2022-10-17T08:58:39.934Z,48.94
2022-10-17T08:59:39.928Z,46.58
2022-10-17T09:00:39.916Z,46.66
2022-10-17T09:01:39.948Z,47.98
2022-10-17T09:02:39.933Z,46.75
2022-10-17T09:03:39.897Z,47.61
2022-10-17T09:04:39.888Z,47.03
2022-10-17T09:05:39.899Z,46.36
2022-10-17T09:06:39.877Z,47.05
2022-10-17T09:07:39.868Z,46.48
2022-10-17T09:08:39.864Z,46.70
2022-10-17T09:09:39.860Z,47.29
2022-10-17T09:10:39.875Z,46.58
2022-10-17T09:11:39.847Z,46.82
2022-10-17T09:12:39.837Z,47.73
2022-10-17T09:13:39.853Z,47.61
2022-10-17T09:14:40.801Z,46.75
2022-10-17T09:15:39.819Z,48.32
2022-10-17T09:16:39.811Z,48.13
2022-10-17T09:17:39.824Z,47.73
2022-10-17T09:18:39.824Z,47.78
2022-10-17T09:19:39.803Z,48.17
2022-10-17T09:20:39.804Z,47.75
2022-10-17T09:21:39.784Z,47.56
2022-10-17T09:22:39.783Z,47.80
2022-10-17T09:23:42.428Z,49.43
2022-10-17T09:24:39.769Z,50.36
2022-10-17T09:25:39.764Z,51.07
2022-10-17T09:26:39.767Z,53.55
2022-10-17T09:27:39.748Z,53.63
2022-10-17T09:28:39.782Z,53.03
2022-10-17T09:29:43.679Z,54.05
2022-10-17T09:30:45.216Z,54.74
2022-10-17T09:31:41.731Z,55.04
2022-10-17T09:32:39.731Z,53.75
2022-10-17T09:33:53.873Z,54.57
2022-10-17T09:34:41.731Z,55.66
2022-10-17T09:35:39.712Z,55.60
2022-10-17T09:36:39.695Z,54.10
2022-10-17T09:37:39.700Z,52.95
2022-10-17T09:38:39.697Z,53.03
2022-10-17T09:39:39.696Z,52.09
2022-10-17T09:40:39.691Z,50.59
2022-10-17T09:41:47.196Z,50.98
2022-10-17T09:42:41.659Z,50.73
2022-10-17T09:43:39.671Z,52.44
2022-10-17T09:44:39.663Z,52.83
2022-10-17T09:45:39.650Z,51.20
2022-10-17T09:46:39.647Z,51.13
2022-10-17T09:47:39.637Z,52.11
2022-10-17T09:48:39.631Z,52.14
2022-10-17T09:49:39.644Z,51.87
2022-10-17T09:50:39.635Z,53.28
2022-10-17T09:51:39.616Z,52.98
2022-10-17T09:52:39.616Z,52.51
2022-10-17T09:53:39.603Z,53.89
2022-10-17T09:54:39.592Z,54.74
2022-10-17T09:55:39.616Z,56.90
2022-10-17T09:56:39.587Z,58.22
2022-10-17T09:57:39.579Z,57.62
2022-10-17T09:58:39.571Z,56.68
2022-10-17T09:59:39.572Z,56.52
2022-10-17T10:00:39.611Z,54.94
2022-10-17T10:01:39.572Z,54.84
2022-10-17T10:02:39.551Z,55.63
2022-10-17T10:03:39.536Z,55.93
2022-10-17T10:04:53.083Z,55.13
2022-10-17T10:05:41.533Z,55.73
2022-10-17T10:06:39.528Z,55.76
2022-10-17T10:07:39.534Z,55.73
2022-10-17T10:08:39.532Z,56.18
2022-10-17T10:09:40.261Z,57.27
2022-10-17T10:10:39.509Z,56.13
2022-10-17T10:11:39.514Z,55.93
2022-10-17T10:12:40.298Z,54.91
2022-10-17T10:13:39.508Z,53.63
2022-10-17T10:14:39.487Z,54.74
2022-10-17T10:15:39.476Z,54.84
2022-10-17T10:16:39.475Z,54.35
2022-10-17T10:17:39.468Z,54.35
2022-10-17T10:18:39.483Z,54.67
2022-10-17T10:19:39.475Z,54.60
2022-10-17T10:20:39.529Z,56.34
2022-10-17T10:21:39.447Z,56.34
2022-10-17T10:22:39.444Z,55.15
2022-10-17T10:23:39.463Z,54.85
2022-10-17T10:24:39.427Z,55.91
2022-10-17T10:25:39.454Z,54.79
2022-10-17T10:26:39.421Z,55.41
2022-10-17T10:27:39.430Z,55.24
2022-10-17T10:28:39.442Z,54.77
2022-10-17T10:29:39.399Z,56.71
2022-10-17T10:30:40.105Z,56.71
2022-10-17T10:31:39.370Z,56.91
2022-10-17T10:32:39.381Z,56.59
2022-10-17T10:33:41.581Z,55.66
2022-10-17T10:34:40.370Z,54.55
2022-10-17T10:35:39.362Z,54.52
2022-10-17T10:36:39.362Z,55.02
2022-10-17T10:37:39.343Z,53.38
2022-10-17T10:38:39.346Z,52.64
2022-10-17T10:39:40.389Z,51.99
2022-10-17T10:40:39.332Z,52.91
2022-10-17T10:41:39.336Z,53.23
2022-10-17T10:42:39.327Z,54.77
2022-10-17T10:43:39.311Z,54.68
2022-10-17T10:44:39.335Z,54.55
2022-10-17T10:45:48.552Z,53.80
2022-10-17T10:46:41.289Z,53.63
2022-10-17T10:47:39.292Z,52.88
2022-10-17T10:48:39.280Z,51.77
2022-10-17T10:49:39.291Z,51.67
2022-10-17T10:50:44.400Z,51.05
2022-10-17T10:51:41.269Z,51.67
2022-10-17T10:52:39.257Z,51.54
2022-10-17T10:53:39.251Z,52.07
2022-10-17T10:55:40.258Z,53.18
2022-10-17T10:56:39.239Z,52.29
2022-10-17T10:57:39.236Z,51.92
2022-10-17T10:58:41.851Z,52.54
2022-10-17T10:59:39.219Z,52.76
2022-10-17T11:00:39.335Z,52.86
2022-10-17T11:01:39.209Z,53.28
2022-10-17T11:02:39.204Z,52.96
2022-10-17T11:04:39.219Z,51.18
2022-10-17T11:05:39.188Z,50.95
2022-10-17T11:06:39.164Z,49.49
2022-10-17T11:07:39.170Z,49.48
2022-10-17T11:08:39.158Z,48.71
2022-10-17T11:09:39.160Z,49.64
2022-10-17T11:10:39.158Z,49.84
2022-10-17T11:11:39.189Z,51.72
2022-10-17T11:12:39.203Z,52.96
2022-10-17T11:13:39.147Z,55.17
2022-10-17T11:14:39.123Z,55.07
2022-10-17T11:15:39.127Z,54.25
2022-10-17T11:16:39.139Z,52.59
2022-10-17T11:17:39.102Z,51.45
2022-10-17T11:18:39.102Z,49.57
2022-10-17T11:19:39.098Z,50.01
2022-10-17T11:20:39.094Z,49.52
2022-10-17T11:21:39.090Z,48.88
2022-10-17T11:22:39.555Z,47.91
2022-10-17T11:23:39.078Z,49.32
2022-10-17T11:24:39.082Z,49.91
2022-10-17T11:25:39.072Z,48.63
2022-10-17T11:26:39.062Z,49.07
2022-10-17T11:27:39.073Z,51.40
2022-10-17T11:28:39.099Z,50.71
2022-10-17T11:29:39.041Z,51.03
2022-10-17T11:30:39.099Z,52.73
2022-10-17T11:31:39.151Z,52.41
2022-10-17T11:32:39.048Z,51.42
2022-10-17T11:33:39.028Z,51.42
2022-10-17T11:34:39.023Z,51.45
2022-10-17T11:35:39.038Z,53.56
2022-10-17T11:36:39.006Z,52.76
2022-10-17T11:37:40.820Z,52.98
2022-10-17T11:38:38.988Z,53.51
2022-10-17T11:39:39.044Z,52.72
2022-10-17T11:40:38.986Z,52.69
2022-10-17T11:41:38.970Z,52.76
2022-10-17T11:42:39.005Z,54.00
2022-10-17T11:43:38.964Z,54.25
2022-10-17T11:44:38.945Z,54.88
2022-10-17T11:45:38.960Z,55.40
2022-10-17T11:46:38.950Z,56.10
2022-10-17T11:47:38.926Z,54.16
2022-10-17T11:48:38.938Z,53.19
2022-10-17T11:49:41.020Z,51.75
2022-10-17T11:52:55.970Z,49.89
2022-10-17T11:53:40.896Z,50.21
2022-10-17T11:54:38.899Z,49.66
2022-10-17T11:55:38.882Z,48.33
2022-10-17T11:56:42.670Z,47.32
2022-10-17T11:57:39.879Z,48.36
2022-10-17T11:58:38.878Z,48.03
2022-10-17T11:59:38.858Z,48.48
2022-10-17T12:00:40.841Z,48.43
2022-10-17T12:01:38.846Z,48.65
2022-10-17T12:02:39.220Z,48.30
2022-10-17T12:03:38.850Z,49.54
2022-10-17T12:04:39.338Z,50.18
2022-10-17T12:05:38.822Z,51.20
2022-10-17T12:06:38.818Z,50.06
2022-10-17T12:07:38.866Z,50.43
2022-10-17T12:08:38.845Z,49.81
2022-10-17T12:09:38.802Z,49.94
2022-10-17T12:10:38.870Z,50.09
2022-10-17T12:11:38.794Z,48.38
2022-10-17T12:12:38.781Z,48.48
2022-10-17T12:13:39.783Z,48.68
2022-10-17T12:14:38.782Z,49.40
2022-10-17T12:15:38.789Z,50.43
2022-10-17T12:16:38.761Z,51.35
2022-10-17T12:17:38.749Z,51.57
2022-10-17T12:18:38.746Z,52.00
2022-10-17T12:19:38.763Z,51.87
2022-10-17T12:20:38.748Z,50.98
2022-10-17T12:21:42.729Z,51.65
2022-10-17T12:22:39.712Z,50.83
2022-10-17T12:23:38.706Z,50.76
2022-10-17T12:24:38.768Z,51.47
2022-10-17T12:25:38.717Z,52.29
2022-10-17T12:26:38.689Z,52.81
2022-10-17T12:27:38.665Z,53.41
2022-10-17T12:28:39.919Z,53.21
2022-10-17T12:29:38.670Z,52.61
2022-10-17T12:30:38.661Z,52.42
2022-10-17T12:31:38.647Z,53.19
2022-10-17T12:33:00.308Z,53.48
2022-10-17T12:33:40.654Z,52.98
2022-10-17T12:34:38.658Z,54.53
2022-10-17T12:35:38.719Z,54.72
2022-10-17T12:36:38.619Z,54.90
2022-10-17T12:37:38.623Z,53.51
2022-10-17T12:38:38.618Z,53.41
2022-10-17T12:39:38.598Z,53.26
2022-10-17T12:40:38.591Z,51.62
2022-10-17T12:41:38.612Z,50.51
2022-10-17T12:42:38.604Z,51.30
2022-10-17T12:43:42.673Z,50.85
2022-10-17T12:44:40.563Z,49.44
2022-10-17T12:45:38.563Z,49.05
2022-10-17T12:46:38.563Z,48.46
2022-10-17T12:47:38.547Z,49.25
2022-10-17T12:48:38.551Z,49.54
2022-10-17T12:49:38.559Z,50.04
2022-10-17T12:50:38.527Z,50.26
2022-10-17T12:51:38.528Z,49.57
2022-10-17T12:52:38.515Z,49.27
2022-10-17T12:53:38.511Z,49.66
2022-10-17T12:54:47.216Z,49.77
2022-10-17T12:55:39.495Z,50.48
2022-10-17T12:56:38.487Z,51.25
2022-10-17T12:57:38.516Z,49.94
2022-10-17T12:58:39.158Z,49.25
2022-10-17T12:59:38.463Z,50.18